Aragon, NM

7:03 PM MDT on October 25, 2014 (GMT -0600)
Largo Mesa | Change Station
CLOSE
Current Station
Personal Weather Station
Location: Quemado, NM
Elevation: 7812 ft
Nearby Weather Stations

Elev 7812 ft 34.26 °N, 108.58 °W | Updated 3 minutes ago

Clear
Clear
61.6 °F
Feels Like 61.6 °F
N
3.0
Wind Variable Wind from WNW
Gusts 10.0 mph

Today
High -- | Low -- °F
--% Chance of Precip.
Yesterday
High -- | Low -- °F
Precip. -- in
7:28 AM 6:28 PM
Waxing Crescent, 5% visible
Pressure 30.04 in
Visibility 10.0 miles
Clouds Clear
Dew Point 30 °F
Humidity 30%
Rainfall 0.00 in
Snow Depth Not available.
UV 0 out of 12
Pollen 5.00 out of 12
Air Quality Not available.
Flu Activity Sporadic
METAR KSJN 260054Z AUTO 24010KT 10SM CLR 21/05 A3021 RMK AO2 SLP173 T02110050

More Conditions Fewer Conditions

Pressure 30.04 in
Visibility 10.0 miles
Clouds Clear
Dew Point 30 °F
Humidity 30%
Rainfall 0.00 in
Snow Depth Not available.
UV 0 out of 12
Pollen 5.00 out of 12
Air Quality Not available.
Flu Activity Sporadic
METAR KSJN 260054Z AUTO 24010KT 10SM CLR 21/05 A3021 RMK AO2 SLP173 T02110050

More Conditions Fewer Conditions

10-Day Weather Forecast

Almanac

Astronomy

Oct. 25, 2014 Rise Set
Actual Time 7:28 AM MDT 6:28 PM MDT
Civil Twilight 7:02 AM MDT 6:54 PM MDT
Nautical Twilight 6:33 AM MDT 7:23 PM MDT
Astronomical Twilight 6:04 AM MDT 7:52 PM MDT
Moon 9:06 AM MDT (10/25) 7:58 PM MDT (10/25)
Length of Visible Light 11h 51m
Length of Day
11h 00m
Tomorrow will be 1m 56s shorter.
Waxing Crescent, 5% of the Moon is Illuminated
Today
Waxing Crescent
Oct 30
First Quarter
Nov 6
Full
Nov 14
Last Quarter
Nov 22
New

Today's Extremes

State Highs State Lows

Community

WunderPhotos

Upload Photos

1,765,057 photos uploaded!

Nearby

Snow Depth

Station Depth Elevation
Frisco Divide 0 in 8000 ft
Silver Creek Divide 0 in 9000 ft
Sierra Blanca 0 in 10280 ft
Senorita Divide #2 0 in 8600 ft
Santa Fe 0 in 11445 ft

Earthquake Activity

City Distance Mag. Time & Date
No recent earthquake activity has been reported nearby.
Minimum magnitude displayed is 2.5.

Coastal Water Temperatures

Place Temperature
No Stations Reporting

Nearby Weather Stations